Time;durP1;ratioP1;P1;durP2;ratioP2;P2;SDS_P1;SDS_P2;PMS_P1;PMS_P2;Temp;Humidity;BMP_temperature;BMP_pressure;BME280_temperature;BME280_humidity;BME280_pressure;Samples;Min_cycle;Max_cycle;Signal;HPM_P1;HPM_P2
2022/04/04 00:01:28;;;;;;;8.85;5.55;;;;;;;;;;5012444;28;20533;-42
2022/04/04 00:03:54;;;;;;;8.20;5.60;;;;;;;;;;5012515;28;20034;-41
2022/04/04 00:06:20;;;;;;;11.27;5.25;;;;;;;;;;5012473;28;20042;-40
2022/04/04 00:08:46;;;;;;;9.10;5.70;;;;;;;;;;5012654;28;20037;-41
2022/04/04 00:11:12;;;;;;;7.65;5.60;;;;;;;;;;5012427;28;20030;-43
2022/04/04 00:13:38;;;;;;;13.45;5.90;;;;;;;;;;5012612;28;20022;-39
2022/04/04 00:16:03;;;;;;;8.88;5.68;;;;;;;;;;5012269;28;20417;-42
2022/04/04 00:18:29;;;;;;;6.07;4.53;;;;;;;;;;5012653;28;20042;-39
2022/04/04 00:20:54;;;;;;;11.60;5.57;;;;;;;;;;5012290;28;20489;-46
2022/04/04 00:23:20;;;;;;;8.27;5.72;;;;;;;;;;5012275;28;20033;-43
2022/04/04 00:25:47;;;;;;;11.20;6.10;;;;;;;;;;5012576;28;20033;-40
2022/04/04 00:28:13;;;;;;;8.77;4.82;;;;;;;;;;5012356;28;20026;-43
2022/04/04 00:30:39;;;;;;;10.68;5.90;;;;;;;;;;5012217;28;20030;-41
2022/04/04 00:33:05;;;;;;;10.98;6.88;;;;;;;;;;5012240;28;20482;-38
2022/04/04 00:35:31;;;;;;;10.45;6.72;;;;;;;;;;5012369;28;20083;-41
2022/04/04 00:38:02;;;;;;;10.15;6.03;;;;;;;;;;5012500;28;20029;-41
2022/04/04 00:40:27;;;;;;;12.50;7.07;;;;;;;;;;5012198;28;20026;-41
2022/04/04 00:42:53;;;;;;;10.98;5.97;;;;;;;;;;5012388;28;20610;-41
2022/04/04 00:45:19;;;;;;;11.40;6.00;;;;;;;;;;5012611;28;20414;-38
2022/04/04 00:47:45;;;;;;;10.40;5.72;;;;;;;;;;5015911;28;20042;-44
2022/04/04 00:50:11;;;;;;;9.32;5.15;;;;;;;;;;5015787;28;20036;-41
2022/04/04 00:52:38;;;;;;;6.90;4.47;;;;;;;;;;5015658;28;20391;-45
2022/04/04 00:55:07;;;;;;;7.45;5.38;;;;;;;;;;5016200;28;20125;-41
2022/04/04 00:57:33;;;;;;;11.73;5.22;;;;;;;;;;5015652;28;20033;-43
2022/04/04 00:59:58;;;;;;;7.18;5.25;;;;;;;;;;5015915;28;20036;-39
2022/04/04 01:02:24;;;;;;;10.23;5.90;;;;;;;;;;5015630;28;20030;-41
2022/04/04 01:04:49;;;;;;;7.45;4.88;;;;;;;;;;5015853;28;20381;-41
2022/04/04 01:07:15;;;;;;;6.38;4.80;;;;;;;;;;5015753;28;20030;-41
2022/04/04 01:09:40;;;;;;;8.30;4.45;;;;;;;;;;5015516;28;20109;-39
2022/04/04 01:12:13;;;;;;;9.80;4.95;;;;;;;;;;5015368;28;20397;-40
2022/04/04 01:14:39;;;;;;;14.00;5.57;;;;;;;;;;5015571;28;20501;-39
2022/04/04 01:17:06;;;;;;;11.13;4.55;;;;;;;;;;5015672;28;20367;-40
2022/04/04 01:19:32;;;;;;;9.48;4.68;;;;;;;;;;5015178;28;20018;-41
2022/04/04 01:21:58;;;;;;;11.15;5.10;;;;;;;;;;5015250;28;20029;-39
2022/04/04 01:24:24;;;;;;;6.72;5.10;;;;;;;;;;5015236;28;20117;-40
2022/04/04 01:26:51;;;;;;;6.55;4.72;;;;;;;;;;5015420;28;20051;-39
2022/04/04 01:29:18;;;;;;;6.95;5.45;;;;;;;;;;5015011;28;20120;-39
2022/04/04 01:31:44;;;;;;;7.63;4.63;;;;;;;;;;5015341;28;20057;-39
2022/04/04 01:34:10;;;;;;;11.43;5.43;;;;;;;;;;5015284;28;20046;-39
2022/04/04 01:36:35;;;;;;;9.65;5.43;;;;;;;;;;5014944;28;20117;-40
2022/04/04 01:39:01;;;;;;;8.00;5.55;;;;;;;;;;5014838;28;20030;-40
2022/04/04 01:41:27;;;;;;;8.50;4.82;;;;;;;;;;5015108;28;20029;-39
2022/04/04 01:43:52;;;;;;;7.75;5.00;;;;;;;;;;5014884;28;20105;-40
2022/04/04 01:46:24;;;;;;;9.10;4.40;;;;;;;;;;5015076;28;20022;-40
2022/04/04 01:48:51;;;;;;;7.45;4.55;;;;;;;;;;5014801;28;20060;-39
2022/04/04 01:51:17;;;;;;;6.55;4.85;;;;;;;;;;5014471;28;20042;-39
2022/04/04 01:53:43;;;;;;;6.50;5.13;;;;;;;;;;5014923;28;20096;-39
2022/04/04 01:56:10;;;;;;;7.32;5.03;;;;;;;;;;5014113;28;20413;-39
2022/04/04 01:58:35;;;;;;;13.18;5.30;;;;;;;;;;5014492;28;20028;-39
2022/04/04 02:01:07;;;;;;;7.97;5.30;;;;;;;;;;5014541;28;20106;-39
2022/04/04 02:03:33;;;;;;;9.30;5.88;;;;;;;;;;5014434;28;20033;-39
2022/04/04 02:05:59;;;;;;;11.95;5.18;;;;;;;;;;5014713;28;20034;-39
2022/04/04 02:08:25;;;;;;;8.82;5.72;;;;;;;;;;5014678;28;20033;-39
2022/04/04 02:10:50;;;;;;;10.10;6.05;;;;;;;;;;5014271;28;20478;-39
2022/04/04 02:13:15;;;;;;;10.13;6.63;;;;;;;;;;5014265;28;20026;-39
2022/04/04 02:15:41;;;;;;;9.75;5.45;;;;;;;;;;5014091;28;20040;-41
2022/04/04 02:18:07;;;;;;;8.10;5.95;;;;;;;;;;5014425;28;20057;-40
2022/04/04 02:20:32;;;;;;;8.35;5.18;;;;;;;;;;5014451;28;20148;-42
2022/04/04 02:22:58;;;;;;;7.32;5.43;;;;;;;;;;5014344;28;20484;-39
2022/04/04 02:25:23;;;;;;;8.73;5.30;;;;;;;;;;5013999;28;20497;-41
2022/04/04 02:27:49;;;;;;;10.70;5.32;;;;;;;;;;5013993;28;20034;-44
2022/04/04 02:30:14;;;;;;;8.75;5.47;;;;;;;;;;5013996;28;20026;-43
2022/04/04 02:32:40;;;;;;;15.05;6.30;;;;;;;;;;5013973;28;20033;-42
2022/04/04 02:35:06;;;;;;;11.02;5.20;;;;;;;;;;5013849;28;20470;-42
2022/04/04 02:37:31;;;;;;;8.90;5.60;;;;;;;;;;5014063;28;20046;-40
2022/04/04 02:39:57;;;;;;;6.95;5.35;;;;;;;;;;5014049;28;20026;-39
2022/04/04 02:42:23;;;;;;;9.75;5.63;;;;;;;;;;5014019;28;20022;-41
2022/04/04 02:44:48;;;;;;;8.30;5.13;;;;;;;;;;5013883;28;20490;-39
2022/04/04 02:47:14;;;;;;;10.95;5.70;;;;;;;;;;5013803;28;20103;-40
2022/04/04 02:49:39;;;;;;;16.00;5.93;;;;;;;;;;5013897;28;20045;-39
2022/04/04 02:52:05;;;;;;;9.82;5.72;;;;;;;;;;5013282;28;20050;-40
2022/04/04 02:54:31;;;;;;;13.15;6.32;;;;;;;;;;5013449;28;20168;-40
2022/04/04 02:56:56;;;;;;;10.25;5.78;;;;;;;;;;5013472;28;20037;-42
2022/04/04 02:59:21;;;;;;;8.13;5.32;;;;;;;;;;5013413;28;20028;-40
2022/04/04 03:01:50;;;;;;;13.80;6.50;;;;;;;;;;5013387;28;20022;-41
2022/04/04 03:04:16;;;;;;;10.75;5.78;;;;;;;;;;5013347;28;20382;-40
2022/04/04 03:06:42;;;;;;;9.75;6.05;;;;;;;;;;5013603;28;20088;-40
2022/04/04 03:09:07;;;;;;;7.18;5.25;;;;;;;;;;5012527;28;20030;-40
2022/04/04 03:11:33;;;;;;;8.82;5.18;;;;;;;;;;5013298;28;20108;-39
2022/04/04 03:13:59;;;;;;;9.80;6.22;;;;;;;;;;5013266;28;20430;-39
2022/04/04 03:16:24;;;;;;;6.03;4.65;;;;;;;;;;5012993;28;20038;-39
2022/04/04 03:18:53;;;;;;;11.15;5.97;;;;;;;;;;5013440;28;20033;-40
2022/04/04 03:21:18;;;;;;;7.70;5.28;;;;;;;;;;5013329;28;20355;-40
2022/04/04 03:23:44;;;;;;;9.35;6.00;;;;;;;;;;5013252;28;20033;-39
2022/04/04 03:26:09;;;;;;;8.07;5.20;;;;;;;;;;5012961;28;20109;-39
2022/04/04 03:28:36;;;;;;;9.10;5.47;;;;;;;;;;5013017;28;20105;-40
2022/04/04 03:31:04;;;;;;;7.45;5.50;;;;;;;;;;5013169;28;20381;-39
2022/04/04 03:33:30;;;;;;;7.65;5.55;;;;;;;;;;5012919;28;20492;-40
2022/04/04 03:35:55;;;;;;;8.80;6.30;;;;;;;;;;5012837;28;20030;-40
2022/04/04 03:38:21;;;;;;;8.98;6.47;;;;;;;;;;5012796;28;20030;-40
2022/04/04 03:40:46;;;;;;;12.80;7.50;;;;;;;;;;5012819;28;20292;-40
2022/04/04 03:43:13;;;;;;;8.00;5.82;;;;;;;;;;5012980;28;20022;-40
2022/04/04 03:45:39;;;;;;;12.45;6.90;;;;;;;;;;5012925;28;20033;-40
2022/04/04 03:48:04;;;;;;;8.15;5.15;;;;;;;;;;5012793;28;20021;-40
2022/04/04 03:50:30;;;;;;;8.27;5.20;;;;;;;;;;5012455;28;20036;-40
2022/04/04 03:52:56;;;;;;;8.88;5.53;;;;;;;;;;5012632;28;20028;-40
2022/04/04 03:55:25;;;;;;;10.10;5.30;;;;;;;;;;5012771;28;20060;-41
2022/04/04 03:57:51;;;;;;;12.00;5.88;;;;;;;;;;5013237;28;20057;-40
2022/04/04 04:00:17;;;;;;;10.55;5.53;;;;;;;;;;5012626;28;20417;-39
2022/04/04 04:02:43;;;;;;;8.70;5.75;;;;;;;;;;5012500;28;20030;-43
2022/04/04 04:05:08;;;;;;;10.05;6.43;;;;;;;;;;5012463;28;20489;-40
2022/04/04 04:07:34;;;;;;;9.65;5.90;;;;;;;;;;5012562;28;20053;-40
2022/04/04 04:10:00;;;;;;;9.55;5.68;;;;;;;;;;5012689;28;20014;-43
2022/04/04 04:12:25;;;;;;;9.43;6.22;;;;;;;;;;5012412;28;20061;-40
2022/04/04 04:14:52;;;;;;;7.20;5.38;;;;;;;;;;5012206;28;20028;-40
2022/04/04 04:17:24;;;;;;;11.00;6.15;;;;;;;;;;5012314;28;20026;-40
2022/04/04 04:22:35;;;;;;;9.75;5.65;;;;;;;;;;5016940;28;20064;-40
2022/04/04 04:25:01;;;;;;;9.65;6.28;;;;;;;;;;4998721;28;20466;-40
2022/04/04 04:27:27;;;;;;;8.65;5.32;;;;;;;;;;5016193;28;20383;-41
2022/04/04 04:29:52;;;;;;;9.73;6.20;;;;;;;;;;5016194;28;20033;-42
2022/04/04 04:32:19;;;;;;;8.90;6.05;;;;;;;;;;5015989;28;20097;-41
2022/04/04 04:34:50;;;;;;;11.13;6.20;;;;;;;;;;5016148;28;20029;-41
2022/04/04 04:37:17;;;;;;;9.88;6.05;;;;;;;;;;5016359;28;20033;-40
2022/04/04 04:39:42;;;;;;;6.78;5.15;;;;;;;;;;5016230;28;20407;-42
2022/04/04 04:42:08;;;;;;;12.30;5.90;;;;;;;;;;5015803;28;20112;-41
2022/04/04 04:44:34;;;;;;;9.38;5.50;;;;;;;;;;4998306;28;20073;-43
2022/04/04 04:47:00;;;;;;;11.30;6.07;;;;;;;;;;5015800;28;20033;-41
2022/04/04 04:49:26;;;;;;;8.00;5.95;;;;;;;;;;5015985;28;20026;-41
2022/04/04 04:51:54;;;;;;;11.80;6.28;;;;;;;;;;5015430;28;20557;-43
2022/04/04 04:54:19;;;;;;;8.32;5.97;;;;;;;;;;5016002;28;20112;-44
2022/04/04 04:56:45;;;;;;;11.55;6.95;;;;;;;;;;5015705;28;20545;-43
2022/04/04 04:59:11;;;;;;;14.45;7.22;;;;;;;;;;5015915;28;20029;-41
2022/04/04 05:01:36;;;;;;;12.85;6.82;;;;;;;;;;5015636;28;20034;-41
2022/04/04 05:04:02;;;;;;;11.80;6.53;;;;;;;;;;5015666;28;20087;-46
2022/04/04 05:06:28;;;;;;;11.60;6.65;;;;;;;;;;5015494;28;20080;-43
2022/04/04 05:08:55;;;;;;;11.13;6.85;;;;;;;;;;5015539;28;20030;-44
2022/04/04 05:11:21;;;;;;;14.13;7.20;;;;;;;;;;5015705;28;20048;-43
2022/04/04 05:13:47;;;;;;;18.58;7.78;;;;;;;;;;5015677;28;20034;-40
2022/04/04 05:16:14;;;;;;;15.20;8.02;;;;;;;;;;5014621;28;20496;-42
2022/04/04 05:18:44;;;;;;;14.13;8.00;;;;;;;;;;5013587;28;20088;-45
2022/04/04 05:21:11;;;;;;;18.88;9.15;;;;;;;;;;5015472;28;20026;-45
2022/04/04 05:23:37;;;;;;;19.52;8.93;;;;;;;;;;5015345;28;20101;-42
2022/04/04 05:26:04;;;;;;;14.52;8.10;;;;;;;;;;5015059;28;20026;-43
2022/04/04 05:28:29;;;;;;;15.77;8.60;;;;;;;;;;5013482;28;20390;-44
2022/04/04 05:30:56;;;;;;;13.75;8.05;;;;;;;;;;5013103;28;20037;-43
2022/04/04 05:33:22;;;;;;;13.82;7.95;;;;;;;;;;5014600;28;20537;-40
2022/04/04 05:35:47;;;;;;;14.25;8.48;;;;;;;;;;5014801;28;20026;-46
2022/04/04 05:38:14;;;;;;;9.32;6.80;;;;;;;;;;5014867;28;20026;-43
2022/04/04 05:40:40;;;;;;;13.80;7.97;;;;;;;;;;5015140;28;20029;-40
2022/04/04 05:43:07;;;;;;;10.60;6.80;;;;;;;;;;5015107;28;20096;-42
2022/04/04 05:45:35;;;;;;;8.48;6.03;;;;;;;;;;5014613;28;20034;-41
2022/04/04 05:48:01;;;;;;;8.63;6.25;;;;;;;;;;5014768;28;20112;-40
2022/04/04 05:50:26;;;;;;;10.57;6.40;;;;;;;;;;5014745;28;20109;-42
2022/04/04 05:52:52;;;;;;;10.20;6.00;;;;;;;;;;5014506;28;20077;-46
2022/04/04 05:55:18;;;;;;;9.70;5.97;;;;;;;;;;5014547;28;20436;-42
2022/04/04 05:57:44;;;;;;;7.93;5.55;;;;;;;;;;5014604;28;20033;-43
2022/04/04 06:00:13;;;;;;;10.20;5.95;;;;;;;;;;5014683;28;20025;-46
2022/04/04 06:02:40;;;;;;;9.30;6.07;;;;;;;;;;5014516;28;20028;-46
2022/04/04 06:05:06;;;;;;;6.95;5.53;;;;;;;;;;5014245;28;20084;-44
2022/04/04 06:07:33;;;;;;;7.40;5.25;;;;;;;;;;5014349;28;20030;-46
2022/04/04 06:09:58;;;;;;;12.02;5.90;;;;;;;;;;5014227;28;20026;-42
2022/04/04 06:12:24;;;;;;;10.57;5.63;;;;;;;;;;5014134;28;20026;-44
2022/04/04 06:14:49;;;;;;;11.40;6.47;;;;;;;;;;5014364;28;20109;-42
2022/04/04 06:17:15;;;;;;;7.55;5.20;;;;;;;;;;5013183;28;20040;-44
2022/04/04 06:19:41;;;;;;;8.95;5.80;;;;;;;;;;5013876;28;20458;-47
2022/04/04 06:22:07;;;;;;;8.15;6.30;;;;;;;;;;5014185;28;20030;-44
2022/04/04 06:24:33;;;;;;;9.55;6.30;;;;;;;;;;5013734;28;20188;-48
2022/04/04 06:27:00;;;;;;;11.02;7.00;;;;;;;;;;5014204;28;20100;-46
2022/04/04 06:29:25;;;;;;;12.80;8.15;;;;;;;;;;5013932;28;20034;-49
2022/04/04 06:31:51;;;;;;;16.48;8.35;;;;;;;;;;5013109;28;20025;-40
2022/04/04 06:34:17;;;;;;;13.77;7.03;;;;;;;;;;5012234;28;20026;-44
2022/04/04 06:36:42;;;;;;;12.85;8.15;;;;;;;;;;5012011;28;20113;-44
2022/04/04 06:39:08;;;;;;;15.18;9.63;;;;;;;;;;5012309;28;20117;-43
2022/04/04 06:41:36;;;;;;;11.02;6.90;;;;;;;;;;5011724;28;20061;-42
2022/04/04 06:44:02;;;;;;;10.25;7.05;;;;;;;;;;5012067;28;20060;-44
2022/04/04 06:46:27;;;;;;;9.93;6.53;;;;;;;;;;5013347;28;20486;-45
2022/04/04 06:48:53;;;;;;;9.40;5.95;;;;;;;;;;4995727;28;20045;-43
2022/04/04 06:51:19;;;;;;;11.82;6.53;;;;;;;;;;5013094;28;20049;-40
2022/04/04 06:53:45;;;;;;;8.98;6.20;;;;;;;;;;5013541;28;20079;-44
2022/04/04 06:56:11;;;;;;;11.93;6.10;;;;;;;;;;5013437;28;20424;-41
2022/04/04 06:58:36;;;;;;;7.40;5.55;;;;;;;;;;5013578;28;20022;-43
2022/04/04 07:01:03;;;;;;;16.15;6.80;;;;;;;;;;5013318;28;20049;-43
2022/04/04 07:03:28;;;;;;;14.07;6.97;;;;;;;;;;5012815;28;20694;-45
2022/04/04 07:05:54;;;;;;;9.70;5.30;;;;;;;;;;5012902;28;20040;-49
2022/04/04 07:08:20;;;;;;;8.82;6.10;;;;;;;;;;5008445;28;20030;-46
2022/04/04 07:10:46;;;;;;;7.45;5.45;;;;;;;;;;5012943;28;20056;-43
2022/04/04 07:13:12;;;;;;;6.57;4.95;;;;;;;;;;4995228;28;20470;-43
2022/04/04 07:15:38;;;;;;;6.88;5.13;;;;;;;;;;5012940;28;20037;-48
2022/04/04 07:18:03;;;;;;;9.23;4.68;;;;;;;;;;5013179;28;20033;-46
2022/04/04 07:20:29;;;;;;;6.95;4.38;;;;;;;;;;5013016;28;20065;-44
2022/04/04 07:22:55;;;;;;;7.20;4.80;;;;;;;;;;5012789;28;20541;-48
2022/04/04 07:25:22;;;;;;;6.32;4.32;;;;;;;;;;5012549;28;20034;-46
2022/04/04 07:27:48;;;;;;;8.65;5.18;;;;;;;;;;5012733;28;20061;-49
2022/04/04 07:30:18;;;;;;;4.80;4.07;;;;;;;;;;5009781;28;20038;-48
2022/04/04 07:32:45;;;;;;;5.03;3.95;;;;;;;;;;5012442;28;20022;-47
2022/04/04 07:35:11;;;;;;;8.20;6.38;;;;;;;;;;5012856;28;20026;-45
2022/04/04 07:37:42;;;;;;;6.88;4.43;;;;;;;;;;5012664;28;20025;-46
2022/04/04 07:40:12;;;;;;;8.00;5.75;;;;;;;;;;5012972;28;20050;-47
2022/04/04 07:42:38;;;;;;;;;;;;;;;;;;4995385;28;20022;-45
2022/04/04 07:45:05;;;;;;;5.88;4.20;;;;;;;;;;5012727;28;19964;-49
2022/04/04 07:47:30;;;;;;;6.43;4.70;;;;;;;;;;5012519;28;20026;-47
2022/04/04 07:49:56;;;;;;;4.35;3.92;;;;;;;;;;5012607;28;20095;-44
2022/04/04 07:52:22;;;;;;;7.30;4.60;;;;;;;;;;5012386;28;20046;-43
2022/04/04 07:54:47;;;;;;;6.85;4.78;;;;;;;;;;5011923;28;20033;-47
2022/04/04 07:57:13;;;;;;;4.57;3.65;;;;;;;;;;5012532;28;20026;-42
2022/04/04 07:59:38;;;;;;;3.88;3.08;;;;;;;;;;5012727;28;20033;-46
2022/04/04 08:02:04;;;;;;;7.15;4.03;;;;;;;;;;5012658;28;20037;-44
2022/04/04 08:04:29;;;;;;;7.63;4.55;;;;;;;;;;5012510;28;20026;-44
2022/04/04 08:06:55;;;;;;;8.82;3.65;;;;;;;;;;5012298;28;20030;-47
2022/04/04 08:09:20;;;;;;;8.55;4.60;;;;;;;;;;5012736;28;20026;-44
2022/04/04 08:11:46;;;;;;;6.05;4.07;;;;;;;;;;5012368;28;20072;-48
2022/04/04 08:14:12;;;;;;;6.75;4.22;;;;;;;;;;5012310;28;20018;-41
2022/04/04 08:16:37;;;;;;;6.75;3.88;;;;;;;;;;5012200;28;20088;-49
2022/04/04 08:19:03;;;;;;;6.72;3.97;;;;;;;;;;5012292;28;20037;-47
2022/04/04 08:21:30;;;;;;;7.75;4.50;;;;;;;;;;5012072;28;20041;-46
2022/04/04 08:23:56;;;;;;;4.43;3.55;;;;;;;;;;5012359;28;20026;-44
2022/04/04 08:26:21;;;;;;;5.00;3.65;;;;;;;;;;4994603;28;20390;-48
2022/04/04 08:28:47;;;;;;;5.60;4.00;;;;;;;;;;5012493;28;20026;-43
2022/04/04 08:31:16;;;;;;;5.25;4.00;;;;;;;;;;5012255;28;20022;-46
2022/04/04 08:33:41;;;;;;;6.40;3.90;;;;;;;;;;5012088;28;20105;-47
2022/04/04 08:36:07;;;;;;;5.88;3.92;;;;;;;;;;5012174;28;20030;-48
2022/04/04 08:38:35;;;;;;;5.47;3.63;;;;;;;;;;5012491;28;20026;-46
2022/04/04 08:41:08;;;;;;;6.10;4.22;;;;;;;;;;5012318;28;20481;-43
2022/04/04 08:43:39;;;;;;;6.50;3.30;;;;;;;;;;5012386;28;20119;-43
2022/04/04 08:46:07;;;;;;;4.03;3.25;;;;;;;;;;5012284;28;20026;-43
2022/04/04 08:48:39;;;;;;;7.82;3.92;;;;;;;;;;5012007;28;20026;-45
2022/04/04 08:51:09;;;;;;;5.50;4.00;;;;;;;;;;5011702;28;20061;-42
2022/04/04 08:53:39;;;;;;;6.88;3.92;;;;;;;;;;5011985;28;20044;-43
2022/04/04 08:56:06;;;;;;;4.90;3.50;;;;;;;;;;5011718;28;20553;-47
2022/04/04 08:58:33;;;;;;;7.10;3.90;;;;;;;;;;5012078;28;20028;-47
2022/04/04 09:00:59;;;;;;;6.55;3.63;;;;;;;;;;5012156;28;20037;-47
2022/04/04 09:03:29;;;;;;;4.30;3.85;;;;;;;;;;5011983;28;20033;-50
2022/04/04 09:05:59;;;;;;;5.45;3.83;;;;;;;;;;5012013;28;20628;-45
2022/04/04 09:08:28;;;;;;;4.82;3.63;;;;;;;;;;5015126;28;20025;-42
2022/04/04 09:10:56;;;;;;;7.05;4.18;;;;;;;;;;5015662;28;20359;-44
2022/04/04 09:13:25;;;;;;;6.65;3.83;;;;;;;;;;5015615;28;20097;-42
2022/04/04 09:15:51;;;;;;;9.80;3.47;;;;;;;;;;5015003;28;20037;-42
2022/04/04 09:18:18;;;;;;;5.55;3.65;;;;;;;;;;5015387;28;20034;-45
2022/04/04 09:20:53;;;;;;;3.88;3.30;;;;;;;;;;5015404;28;20108;-50
2022/04/04 09:23:18;;;;;;;6.45;3.83;;;;;;;;;;5015065;28;20029;-47
2022/04/04 09:25:44;;;;;;;7.97;4.18;;;;;;;;;;5015511;28;20026;-47
2022/04/04 09:28:18;;;;;;;5.63;4.07;;;;;;;;;;5015324;28;20026;-46
2022/04/04 09:31:04;;;;;;;4.57;3.83;;;;;;;;;;5015094;28;20032;-46
2022/04/04 09:33:40;;;;;;;5.57;4.57;;;;;;;;;;5015228;28;20038;-45
2022/04/04 09:36:06;;;;;;;4.97;3.55;;;;;;;;;;5015285;28;20042;-45
2022/04/04 09:38:35;;;;;;;6.95;4.10;;;;;;;;;;5013195;28;20104;-43
2022/04/04 09:41:17;;;;;;;5.93;3.95;;;;;;;;;;5013662;28;20029;-46
2022/04/04 09:43:58;;;;;;;6.03;4.22;;;;;;;;;;5013153;28;20038;-45
2022/04/04 09:46:24;;;;;;;9.82;5.18;;;;;;;;;;5014757;28;20105;-44
2022/04/04 09:49:09;;;;;;;8.15;4.50;;;;;;;;;;5015038;28;20049;-43
2022/04/04 09:51:55;;;;;;;6.00;4.57;;;;;;;;;;5014368;28;20200;-46
2022/04/04 09:54:24;;;;;;;6.60;4.78;;;;;;;;;;5013804;28;20034;-42
2022/04/04 09:56:56;;;;;;;6.00;4.57;;;;;;;;;;5013717;28;20030;-42
2022/04/04 09:59:21;;;;;;;4.78;4.07;;;;;;;;;;5014547;28;20037;-45
2022/04/04 10:01:47;;;;;;;6.07;4.45;;;;;;;;;;5014280;28;20030;-42
2022/04/04 10:04:13;;;;;;;6.00;4.15;;;;;;;;;;5013881;28;20609;-42
2022/04/04 10:06:43;;;;;;;4.80;4.30;;;;;;;;;;5012083;28;20034;-42
2022/04/04 10:09:09;;;;;;;;;;;;;;;;;;5013561;28;20087;-45
2022/04/04 10:11:38;;;;;;;6.18;3.78;;;;;;;;;;5012945;28;20421;-44
2022/04/04 10:14:04;;;;;;;5.30;4.30;;;;;;;;;;5013299;28;20026;-44
2022/04/04 10:16:32;;;;;;;5.85;4.25;;;;;;;;;;5012747;28;20064;-43
2022/04/04 10:18:58;;;;;;;5.60;3.83;;;;;;;;;;5012315;28;20030;-44
2022/04/04 10:21:26;;;;;;;6.28;3.67;;;;;;;;;;5012787;28;20026;-43
2022/04/04 10:23:59;;;;;;;10.35;4.18;;;;;;;;;;5012863;28;20385;-43
2022/04/04 10:26:31;;;;;;;6.95;3.58;;;;;;;;;;5012684;28;20033;-44
2022/04/04 10:29:13;;;;;;;4.28;3.63;;;;;;;;;;5012535;28;20054;-45
2022/04/04 10:31:51;;;;;;;6.57;4.30;;;;;;;;;;5012268;28;20080;-44
2022/04/04 10:34:19;;;;;;;4.18;3.53;;;;;;;;;;5012500;28;20053;-46
2022/04/04 10:37:19;;;;;;;5.57;3.78;;;;;;;;;;5012471;28;20030;-47
2022/04/04 10:39:47;;;;;;;5.25;3.72;;;;;;;;;;5012623;28;20374;-41
2022/04/04 10:42:31;;;;;;;6.55;3.90;;;;;;;;;;5012042;28;20030;-45
2022/04/04 10:45:04;;;;;;;4.85;3.50;;;;;;;;;;5012603;28;20378;-42
2022/04/04 10:47:30;;;;;;;5.00;3.65;;;;;;;;;;5012084;28;20127;-40
2022/04/04 10:50:30;;;;;;;9.27;5.32;;;;;;;;;;5012033;28;20504;-46
2022/04/04 10:53:01;;;;;;;4.90;4.30;;;;;;;;;;5001506;28;20101;-44
2022/04/04 10:55:32;;;;;;;3.97;3.58;;;;;;;;;;4992384;28;20290;-42
2022/04/04 10:58:10;;;;;;;4.95;3.83;;;;;;;;;;4992378;28;20026;-42
2022/04/04 11:00:55;;;;;;;4.70;3.83;;;;;;;;;;4992475;28;20050;-43
2022/04/04 11:03:30;;;;;;;5.65;3.63;;;;;;;;;;4992285;28;20165;-41
2022/04/04 11:09:16;;;;;;;5.07;3.10;;;;;;;;;;4992208;28;20124;-42
2022/04/04 11:11:55;;;;;;;8.30;3.90;;;;;;;;;;4992035;28;20037;-43
2022/04/04 11:14:33;;;;;;;6.55;3.75;;;;;;;;;;4992190;28;20038;-46
2022/04/04 11:20:10;;;;;;;5.65;3.95;;;;;;;;;;4982828;28;20038;-44
2022/04/04 11:22:45;;;;;;;8.88;4.30;;;;;;;;;;4992032;28;20386;-43
2022/04/04 11:25:19;;;;;;;5.20;3.83;;;;;;;;;;4991809;28;20375;-47
2022/04/04 11:27:48;;;;;;;5.93;4.35;;;;;;;;;;4992126;28;20106;-44
2022/04/04 11:30:19;;;;;;;5.40;4.32;;;;;;;;;;4990930;28;20542;-43
2022/04/04 11:32:47;;;;;;;6.57;3.85;;;;;;;;;;4991834;28;20041;-43
2022/04/04 11:35:15;;;;;;;5.45;3.88;;;;;;;;;;4991534;28;20475;-42
2022/04/04 11:37:46;;;;;;;5.40;3.42;;;;;;;;;;4991428;28;20529;-42
2022/04/04 11:40:19;;;;;;;4.28;3.50;;;;;;;;;;4991794;28;20038;-41
2022/04/04 11:42:51;;;;;;;4.25;3.85;;;;;;;;;;4991317;28;20478;-45
2022/04/04 11:45:25;;;;;;;4.40;3.90;;;;;;;;;;4991409;28;20541;-43
2022/04/04 11:48:06;;;;;;;7.10;4.40;;;;;;;;;;4991584;28;20077;-46
2022/04/04 11:50:34;;;;;;;6.07;4.43;;;;;;;;;;4991925;28;20037;-45
2022/04/04 11:53:25;;;;;;;6.25;4.18;;;;;;;;;;5009450;28;20115;-43
2022/04/04 11:55:51;;;;;;;5.65;4.28;;;;;;;;;;5011255;28;20083;-41
2022/04/04 11:58:20;;;;;;;5.47;4.20;;;;;;;;;;5010992;28;20026;-42
2022/04/04 12:00:55;;;;;;;6.05;4.40;;;;;;;;;;5010904;28;20565;-42
2022/04/04 12:03:23;;;;;;;7.05;5.20;;;;;;;;;;5011162;28;20033;-41
2022/04/04 12:05:49;;;;;;;4.55;4.00;;;;;;;;;;5010633;28;20521;-42
2022/04/04 12:08:19;;;;;;;6.53;4.68;;;;;;;;;;5010954;28;20077;-41
2022/04/04 12:10:47;;;;;;;6.15;4.72;;;;;;;;;;5010897;28;20022;-42
2022/04/04 12:13:18;;;;;;;4.93;4.22;;;;;;;;;;5011132;28;20026;-42
2022/04/04 12:15:44;;;;;;;5.45;4.18;;;;;;;;;;5010947;28;20483;-48
2022/04/04 12:18:11;;;;;;;4.82;4.32;;;;;;;;;;5010662;28;20041;-41
2022/04/04 12:20:44;;;;;;;5.88;4.38;;;;;;;;;;4992941;28;20108;-42
2022/04/04 12:26:01;;;;;;;6.57;5.45;;;;;;;;;;5011079;28;20040;-41
2022/04/04 12:28:35;;;;;;;7.85;5.10;;;;;;;;;;5010928;28;20022;-42
2022/04/04 12:31:14;;;;;;;5.68;4.13;;;;;;;;;;5010640;28;20033;-41
2022/04/04 12:33:40;;;;;;;6.05;4.53;;;;;;;;;;5010946;28;20037;-42
2022/04/04 12:36:06;;;;;;;4.82;3.70;;;;;;;;;;5010856;28;20038;-41
2022/04/04 12:38:37;;;;;;;5.20;4.68;;;;;;;;;;5010889;28;20021;-45
2022/04/04 12:41:05;;;;;;;5.18;4.40;;;;;;;;;;5011979;28;20497;-42
2022/04/04 12:43:31;;;;;;;7.72;4.50;;;;;;;;;;5014016;28;20030;-42
2022/04/04 12:45:57;;;;;;;5.35;4.85;;;;;;;;;;5014418;28;20026;-42
2022/04/04 12:48:32;;;;;;;6.30;4.95;;;;;;;;;;5014052;28;20029;-41
2022/04/04 12:50:57;;;;;;;6.55;4.90;;;;;;;;;;5012526;28;20061;-41
2022/04/04 12:53:23;;;;;;;6.00;5.00;;;;;;;;;;5013824;28;20486;-42
2022/04/04 12:56:08;;;;;;;8.95;4.75;;;;;;;;;;5014233;28;20037;-44
2022/04/04 12:58:34;;;;;;;9.48;4.57;;;;;;;;;;5014303;28;20040;-41
2022/04/04 13:01:29;;;;;;;9.68;5.70;;;;;;;;;;5013927;28;20034;-43
2022/04/04 13:03:55;;;;;;;9.52;6.13;;;;;;;;;;4990943;28;20088;-45
2022/04/04 13:06:21;;;;;;;9.00;5.50;;;;;;;;;;5014063;28;20109;-41
2022/04/04 13:08:58;;;;;;;7.75;5.40;;;;;;;;;;5014258;28;20053;-43
2022/04/04 13:11:25;;;;;;;6.75;4.60;;;;;;;;;;5014191;28;20083;-46
2022/04/04 13:14:05;;;;;;;7.63;5.20;;;;;;;;;;5013972;28;20589;-48
2022/04/04 13:16:36;;;;;;;8.88;5.28;;;;;;;;;;5013736;28;20033;-41
2022/04/04 13:19:08;;;;;;;6.38;4.30;;;;;;;;;;5013777;28;20022;-42
2022/04/04 13:21:35;;;;;;;9.00;4.88;;;;;;;;;;5013813;28;20026;-44
2022/04/04 13:24:01;;;;;;;5.47;4.47;;;;;;;;;;5013707;28;20538;-45
2022/04/04 13:26:27;;;;;;;8.02;4.70;;;;;;;;;;5013808;28;20109;-45
2022/04/04 13:28:53;;;;;;;7.50;4.55;;;;;;;;;;5013675;28;20030;-46
2022/04/04 13:31:19;;;;;;;5.43;4.28;;;;;;;;;;5013629;28;20045;-41
2022/04/04 13:33:46;;;;;;;8.35;4.97;;;;;;;;;;5013416;28;20104;-46
2022/04/04 13:36:12;;;;;;;6.25;4.88;;;;;;;;;;5013262;28;20041;-41
2022/04/04 13:38:37;;;;;;;6.88;4.10;;;;;;;;;;4995684;28;20034;-41
2022/04/04 13:41:03;;;;;;;7.05;4.80;;;;;;;;;;5013334;28;20084;-42
2022/04/04 13:43:29;;;;;;;5.75;4.20;;;;;;;;;;5011943;28;20532;-40
2022/04/04 13:45:54;;;;;;;8.07;4.40;;;;;;;;;;5013500;28;20459;-41
2022/04/04 13:48:20;;;;;;;6.57;4.07;;;;;;;;;;5013149;28;20375;-42
2022/04/04 13:50:46;;;;;;;5.03;3.42;;;;;;;;;;5013306;28;20088;-43
2022/04/04 13:53:12;;;;;;;8.05;5.18;;;;;;;;;;5012566;28;20535;-46
2022/04/04 13:55:37;;;;;;;7.82;4.40;;;;;;;;;;5013167;28;20654;-47
2022/04/04 13:58:03;;;;;;;7.93;4.72;;;;;;;;;;5013345;28;20077;-46
2022/04/04 14:00:28;;;;;;;6.55;4.10;;;;;;;;;;5008917;28;20034;-41
2022/04/04 14:02:54;;;;;;;7.45;4.20;;;;;;;;;;5010735;28;20105;-42
2022/04/04 14:05:20;;;;;;;5.40;4.47;;;;;;;;;;5012825;28;20446;-45
2022/04/04 14:07:45;;;;;;;7.30;4.28;;;;;;;;;;5012996;28;20121;-46
2022/04/04 14:10:12;;;;;;;9.35;4.20;;;;;;;;;;5012771;28;20050;-41
2022/04/04 14:12:38;;;;;;;6.60;4.55;;;;;;;;;;5012690;28;20169;-41
2022/04/04 14:15:06;;;;;;;5.70;4.10;;;;;;;;;;5012458;28;20022;-44
2022/04/04 14:17:35;;;;;;;4.97;3.92;;;;;;;;;;5012673;28;20080;-42
2022/04/04 14:20:05;;;;;;;6.70;4.30;;;;;;;;;;5012434;28;20109;-43
2022/04/04 14:22:31;;;;;;;5.50;4.73;;;;;;;;;;5012497;28;20050;-40
2022/04/04 14:24:57;;;;;;;6.60;4.38;;;;;;;;;;5012383;28;20021;-41
2022/04/04 14:27:27;;;;;;;6.53;4.43;;;;;;;;;;5012716;28;20021;-41
2022/04/04 14:29:53;;;;;;;7.17;4.33;;;;;;;;;;5012558;28;20104;-41
2022/04/04 14:32:18;;;;;;;6.68;4.43;;;;;;;;;;5012271;28;20260;-42
2022/04/04 14:34:44;;;;;;;5.03;4.17;;;;;;;;;;5012153;28;20084;-40
2022/04/04 14:37:11;;;;;;;5.38;4.35;;;;;;;;;;5011880;28;20030;-41
2022/04/04 14:39:38;;;;;;;7.78;5.03;;;;;;;;;;5012335;28;20363;-41
2022/04/04 14:42:05;;;;;;;5.40;4.65;;;;;;;;;;5011956;28;20022;-41
2022/04/04 14:44:31;;;;;;;5.00;3.95;;;;;;;;;;5012189;28;20112;-40
2022/04/04 14:46:56;;;;;;;7.50;4.93;;;;;;;;;;5012082;28;20121;-41
2022/04/04 14:49:21;;;;;;;6.03;3.47;;;;;;;;;;5011792;28;20037;-43
2022/04/04 14:51:47;;;;;;;5.55;4.38;;;;;;;;;;5011867;28;20486;-42
2022/04/04 14:54:13;;;;;;;6.55;4.38;;;;;;;;;;5011882;28;20033;-42
2022/04/04 14:56:38;;;;;;;5.70;4.25;;;;;;;;;;5011483;28;20493;-42